createdAt,value
2019-03-13T00:01:45.475Z,71.80
2019-03-13T00:04:15.337Z,71.80
2019-03-13T00:06:45.262Z,72.00
2019-03-13T00:09:15.185Z,72.10
2019-03-13T00:11:44.956Z,72.20
2019-03-13T00:14:14.731Z,73.20
2019-03-13T00:16:44.496Z,72.30
2019-03-13T00:19:14.301Z,72.30
2019-03-13T00:21:44.005Z,72.40
2019-03-13T00:24:14.881Z,72.40
2019-03-13T00:26:44.732Z,72.40
2019-03-13T00:29:14.428Z,72.30
2019-03-13T00:31:44.211Z,72.30
2019-03-13T00:34:13.993Z,72.20
2019-03-13T00:36:43.703Z,72.20
2019-03-13T00:39:13.409Z,72.30
2019-03-13T00:41:43.107Z,72.30
2019-03-13T00:44:12.901Z,72.30
2019-03-13T00:46:43.573Z,72.30
2019-03-13T00:49:13.413Z,72.50
2019-03-13T00:51:43.195Z,72.50
2019-03-13T00:54:12.965Z,72.40
2019-03-13T00:56:42.757Z,72.70
2019-03-13T00:59:14.403Z,72.60
2019-03-13T01:02:12.617Z,72.50
2019-03-13T01:04:50.613Z,72.40
2019-03-13T01:07:20.412Z,72.40
2019-03-13T01:09:50.255Z,72.40
2019-03-13T01:12:20.156Z,72.10
2019-03-13T01:14:49.991Z,72.10
2019-03-13T01:17:19.784Z,72.70
2019-03-13T01:19:49.490Z,71.80
2019-03-13T01:22:19.252Z,71.90
2019-03-13T01:24:48.945Z,71.70
2019-03-13T01:27:18.812Z,71.60
2019-03-13T01:29:48.504Z,71.70
2019-03-13T01:32:46.418Z,72.50
2019-03-13T01:35:37.983Z,71.70
2019-03-13T01:38:07.677Z,72.50
2019-03-13T01:40:37.469Z,71.70
2019-03-13T01:43:07.232Z,71.70
2019-03-13T01:45:37.079Z,71.80
2019-03-13T01:48:06.899Z,71.90
2019-03-13T01:50:36.576Z,71.80
2019-03-13T01:53:06.300Z,72.00
2019-03-13T01:55:36.070Z,72.00
2019-03-13T01:58:05.853Z,72.00
2019-03-13T02:00:35.697Z,72.00
2019-03-13T02:03:05.568Z,71.90
2019-03-13T02:05:35.440Z,72.10
2019-03-13T02:08:05.228Z,72.10
2019-03-13T02:10:35.001Z,72.20
2019-03-13T02:13:04.931Z,72.30
2019-03-13T02:15:34.743Z,72.20
2019-03-13T02:18:04.505Z,72.30
2019-03-13T02:20:36.707Z,72.30
2019-03-13T02:23:06.981Z,72.30
2019-03-13T02:25:37.629Z,72.20
2019-03-13T02:28:07.318Z,72.00
2019-03-13T02:30:37.060Z,72.00
2019-03-13T02:33:06.746Z,72.00
2019-03-13T02:35:36.442Z,72.10
2019-03-13T02:38:06.186Z,72.10
2019-03-13T02:40:35.864Z,72.30
2019-03-13T02:43:05.550Z,72.30
2019-03-13T02:45:35.238Z,72.40
2019-03-13T02:48:05.006Z,72.40
2019-03-13T02:50:34.674Z,71.70
2019-03-13T02:53:04.439Z,72.20
2019-03-13T02:55:35.219Z,72.20
2019-03-13T02:58:05.077Z,72.20
2019-03-13T03:00:59.694Z,72.20
2019-03-13T03:03:32.328Z,72.20
2019-03-13T03:06:02.022Z,71.90
2019-03-13T03:08:31.693Z,71.90
2019-03-13T03:11:01.377Z,71.90
2019-03-13T03:13:31.068Z,71.70
2019-03-13T03:16:00.733Z,71.50
2019-03-13T03:18:30.503Z,71.50
2019-03-13T03:21:00.160Z,71.30
2019-03-13T03:23:29.926Z,71.30
2019-03-13T03:25:59.636Z,71.10
2019-03-13T03:28:29.315Z,71.20
2019-03-13T03:30:59.094Z,71.00
2019-03-13T03:33:28.826Z,71.00
2019-03-13T03:35:58.509Z,70.90
2019-03-13T03:38:28.315Z,70.80
2019-03-13T03:40:58.120Z,70.70
2019-03-13T03:43:39.488Z,70.80
2019-03-13T03:45:59.179Z,70.50
2019-03-13T03:48:28.875Z,70.50
2019-03-13T03:50:58.661Z,70.30
2019-03-13T03:53:28.335Z,70.30
2019-03-13T03:55:58.159Z,70.20
2019-03-13T03:58:29.558Z,70.10
2019-03-13T04:00:59.300Z,69.90
2019-03-13T04:03:29.172Z,70.10
2019-03-13T04:05:59.304Z,69.80
2019-03-13T04:08:29.084Z,69.80
2019-03-13T04:10:58.756Z,69.70
2019-03-13T04:13:28.436Z,69.90
2019-03-13T04:15:58.123Z,69.80
2019-03-13T04:18:27.793Z,69.80
2019-03-13T04:20:58.444Z,70.00
2019-03-13T04:23:28.117Z,69.90
2019-03-13T04:25:58.053Z,70.00
2019-03-13T04:28:27.811Z,69.80
2019-03-13T04:30:57.496Z,70.00
2019-03-13T04:33:28.388Z,70.00
2019-03-13T04:35:58.357Z,69.80
2019-03-13T04:38:28.017Z,70.00
2019-03-13T04:40:57.711Z,69.90
2019-03-13T04:43:27.385Z,70.00
2019-03-13T04:45:57.060Z,69.80
2019-03-13T04:48:26.877Z,69.90
2019-03-13T04:50:56.567Z,70.00
2019-03-13T04:53:26.246Z,70.00
2019-03-13T04:55:56.119Z,70.10
2019-03-13T04:58:25.875Z,70.10
2019-03-13T05:00:55.716Z,69.90
2019-03-13T05:03:27.256Z,69.90
2019-03-13T05:06:20.509Z,70.00
2019-03-13T05:09:11.232Z,70.00
2019-03-13T05:11:40.939Z,70.10
2019-03-13T05:14:10.614Z,69.90
2019-03-13T05:16:40.389Z,69.80
2019-03-13T05:19:10.062Z,69.70
2019-03-13T05:21:39.853Z,69.60
2019-03-13T05:24:09.500Z,69.80
2019-03-13T05:26:39.200Z,69.70
2019-03-13T05:29:08.867Z,69.60
2019-03-13T05:31:38.565Z,69.40
2019-03-13T05:34:08.233Z,69.50
2019-03-13T05:36:37.912Z,69.30
2019-03-13T05:39:08.041Z,69.30
2019-03-13T05:41:38.200Z,69.20
2019-03-13T05:44:07.876Z,69.40
2019-03-13T05:46:37.569Z,69.20
2019-03-13T05:49:08.398Z,69.10
2019-03-13T05:51:38.197Z,69.00
2019-03-13T05:54:07.872Z,69.20
2019-03-13T05:56:40.621Z,69.30
2019-03-13T05:59:09.028Z,69.30
2019-03-13T06:01:38.737Z,69.40
2019-03-13T06:04:08.407Z,69.30
2019-03-13T06:06:38.114Z,69.30
2019-03-13T06:09:08.295Z,69.30
2019-03-13T06:11:37.997Z,69.40
2019-03-13T06:14:08.507Z,69.50
2019-03-13T06:16:38.220Z,70.00
2019-03-13T06:19:07.929Z,70.10
2019-03-13T06:21:37.636Z,70.00
2019-03-13T06:24:07.337Z,70.30
2019-03-13T06:26:37.093Z,70.30
2019-03-13T06:29:06.764Z,70.10
2019-03-13T06:31:36.548Z,70.40
2019-03-13T06:34:06.307Z,70.40
2019-03-13T06:36:36.019Z,70.30
2019-03-13T06:39:07.247Z,70.70
2019-03-13T06:41:36.961Z,71.10
2019-03-13T06:44:06.650Z,71.20
2019-03-13T06:46:36.345Z,71.30
2019-03-13T06:49:06.479Z,71.10
2019-03-13T06:51:36.273Z,71.90
2019-03-13T06:54:05.972Z,70.90
2019-03-13T06:56:35.685Z,71.30
2019-03-13T06:59:13.354Z,71.50
2019-03-13T07:02:01.426Z,71.30
2019-03-13T07:04:56.145Z,71.40
2019-03-13T07:07:48.380Z,71.50
2019-03-13T07:10:45.581Z,71.50
2019-03-13T07:13:23.994Z,71.60
2019-03-13T07:16:12.751Z,71.80
2019-03-13T07:18:48.177Z,71.70
2019-03-13T07:21:30.247Z,71.60
2019-03-13T07:24:31.350Z,71.80
2019-03-13T07:27:25.962Z,71.70
2019-03-13T07:30:14.740Z,71.60
2019-03-13T07:33:00.353Z,71.60
2019-03-13T07:35:53.380Z,71.70
2019-03-13T07:38:45.276Z,71.70
2019-03-13T07:41:39.080Z,71.90
2019-03-13T07:44:37.218Z,72.00
2019-03-13T07:47:29.424Z,71.80
2019-03-13T07:50:11.807Z,71.70
2019-03-13T07:52:59.245Z,71.80
2019-03-13T07:55:37.848Z,71.40
2019-03-13T07:58:25.464Z,71.50
2019-03-13T08:01:06.824Z,71.50
2019-03-13T08:03:58.420Z,71.60
2019-03-13T08:06:46.132Z,71.60
2019-03-13T08:09:33.935Z,71.60
2019-03-13T08:12:17.765Z,71.70
2019-03-13T08:14:57.416Z,71.40
2019-03-13T08:17:41.641Z,71.40
2019-03-13T08:20:30.609Z,71.40
2019-03-13T08:23:28.558Z,71.10
2019-03-13T08:26:18.567Z,70.70
2019-03-13T08:29:25.394Z,70.80
2019-03-13T08:32:12.841Z,70.60
2019-03-13T08:35:00.600Z,70.40
2019-03-13T08:37:58.665Z,70.40
2019-03-13T08:40:37.191Z,70.30
2019-03-13T08:43:19.268Z,70.20
2019-03-13T08:46:11.519Z,70.20
2019-03-13T08:48:58.655Z,69.90
2019-03-13T08:51:53.512Z,69.90
2019-03-13T08:54:48.141Z,70.70
2019-03-13T08:57:26.512Z,69.60
2019-03-13T09:00:08.728Z,69.80
2019-03-13T09:02:56.265Z,69.70
2019-03-13T09:05:40.915Z,69.80
2019-03-13T09:08:39.101Z,70.20
2019-03-13T09:11:18.627Z,70.50
2019-03-13T09:14:12.483Z,70.50
2019-03-13T09:16:56.052Z,70.80
2019-03-13T09:19:47.639Z,71.20
2019-03-13T09:22:35.061Z,71.30
2019-03-13T09:25:23.003Z,71.30
2019-03-13T09:28:17.652Z,71.60
2019-03-13T09:31:01.956Z,71.60
2019-03-13T09:33:47.022Z,71.30
2019-03-13T09:36:35.797Z,71.60
2019-03-13T09:39:28.552Z,71.80
2019-03-13T09:42:10.111Z,72.10
2019-03-13T09:45:01.690Z,71.90
2019-03-13T09:47:52.322Z,71.50
2019-03-13T09:50:27.155Z,71.70
2019-03-13T09:53:15.967Z,71.90
2019-03-13T09:55:55.950Z,71.70
2019-03-13T09:58:50.824Z,71.50
2019-03-13T10:01:37.657Z,71.90
2019-03-13T10:04:32.432Z,72.10
2019-03-13T10:07:20.800Z,72.10
2019-03-13T10:10:14.964Z,72.00
2019-03-13T10:13:16.079Z,72.50
2019-03-13T10:15:53.907Z,72.50
2019-03-13T10:18:57.739Z,72.90
2019-03-13T10:21:52.624Z,72.80
2019-03-13T10:24:40.146Z,74.40
2019-03-13T10:27:27.810Z,73.50
2019-03-13T10:30:06.443Z,73.30
2019-03-13T10:32:47.728Z,73.40
2019-03-13T10:35:35.368Z,73.50
2019-03-13T10:38:15.344Z,73.30
2019-03-13T10:41:07.015Z,73.20
2019-03-13T10:43:54.535Z,73.30
2019-03-13T10:46:37.174Z,73.30
2019-03-13T10:49:19.503Z,73.20
2019-03-13T10:52:05.902Z,73.10
2019-03-13T10:54:51.564Z,72.90
2019-03-13T10:57:52.696Z,73.00
2019-03-13T11:00:36.034Z,73.30
2019-03-13T11:03:28.234Z,73.30
2019-03-13T11:06:15.923Z,73.30
2019-03-13T11:08:56.473Z,73.50
2019-03-13T11:12:00.895Z,73.60
2019-03-13T11:14:48.428Z,73.40
2019-03-13T11:17:35.905Z,72.90
2019-03-13T11:20:22.429Z,73.00
2019-03-13T11:23:03.728Z,72.70
2019-03-13T11:25:52.472Z,72.70
2019-03-13T11:28:41.026Z,72.60
2019-03-13T11:31:42.044Z,72.60
2019-03-13T11:34:33.275Z,72.30
2019-03-13T11:37:29.485Z,72.20
2019-03-13T11:40:06.393Z,72.20
2019-03-13T11:43:02.643Z,72.20
2019-03-13T11:45:57.724Z,72.10
2019-03-13T11:48:35.726Z,72.10
2019-03-13T11:51:30.667Z,72.10
2019-03-13T11:54:16.527Z,72.30
2019-03-13T11:57:04.054Z,72.30
2019-03-13T11:59:56.857Z,72.70
2019-03-13T12:02:43.148Z,72.90
2019-03-13T12:05:23.315Z,72.40
2019-03-13T12:08:03.253Z,72.30
2019-03-13T12:10:51.026Z,72.40
2019-03-13T12:13:45.980Z,72.70
2019-03-13T12:16:34.744Z,73.10
2019-03-13T12:19:19.929Z,73.00
2019-03-13T12:22:01.583Z,73.20
2019-03-13T12:24:44.701Z,73.30
2019-03-13T12:27:21.793Z,73.70
2019-03-13T12:30:11.484Z,73.80
2019-03-13T12:32:54.903Z,74.10
2019-03-13T12:35:39.682Z,75.20
2019-03-13T12:38:47.192Z,74.60
2019-03-13T12:41:48.149Z,74.50
2019-03-13T12:44:24.259Z,74.90
2019-03-13T12:47:18.940Z,74.70
2019-03-13T12:50:10.846Z,74.90
2019-03-13T12:52:58.236Z,75.00
2019-03-13T12:55:47.096Z,75.10
2019-03-13T12:58:34.471Z,75.30
2019-03-13T13:01:41.591Z,75.50
2019-03-13T13:04:29.674Z,75.70
2019-03-13T13:07:11.379Z,76.10
2019-03-13T13:10:03.095Z,76.10
2019-03-13T13:12:54.208Z,76.20
2019-03-13T13:15:49.409Z,76.30
2019-03-13T13:18:30.599Z,76.40
2019-03-13T13:21:00.285Z,76.60
2019-03-13T13:23:31.107Z,76.70
2019-03-13T13:26:00.892Z,76.60
2019-03-13T13:28:30.719Z,76.80
2019-03-13T13:31:00.496Z,76.90
2019-03-13T13:33:30.165Z,77.00
2019-03-13T13:35:59.862Z,77.10
2019-03-13T13:38:29.604Z,77.10
2019-03-13T13:40:59.331Z,77.20
2019-03-13T13:43:29.011Z,77.10
2019-03-13T13:46:02.915Z,77.30
2019-03-13T13:48:32.577Z,77.20
2019-03-13T13:51:02.287Z,77.10
2019-03-13T13:53:31.962Z,77.20
2019-03-13T13:56:01.648Z,77.30
2019-03-13T13:58:31.328Z,77.50
2019-03-13T14:01:01.079Z,77.40
2019-03-13T14:03:30.767Z,77.40
2019-03-13T14:06:00.477Z,77.30
2019-03-13T14:08:30.242Z,77.40
2019-03-13T14:11:01.486Z,77.60
2019-03-13T14:13:31.166Z,77.80
2019-03-13T14:16:00.938Z,77.80
2019-03-13T14:18:30.718Z,77.90
2019-03-13T14:21:00.488Z,77.90
2019-03-13T14:23:30.194Z,78.00
2019-03-13T14:25:59.956Z,78.00
2019-03-13T14:28:29.661Z,78.20
2019-03-13T14:30:59.534Z,78.00
2019-03-13T14:33:29.299Z,78.10
2019-03-13T14:35:59.163Z,78.10
2019-03-13T14:38:28.899Z,78.00
2019-03-13T14:40:58.697Z,78.10
2019-03-13T14:43:28.545Z,78.10
2019-03-13T14:45:58.404Z,78.70
2019-03-13T14:48:28.119Z,78.10
2019-03-13T14:50:57.796Z,78.30
2019-03-13T14:53:27.710Z,78.70
2019-03-13T14:55:57.481Z,78.60
2019-03-13T14:58:27.360Z,78.30
2019-03-13T15:00:57.230Z,78.00
2019-03-13T15:03:26.922Z,77.80
2019-03-13T15:05:56.695Z,77.30
2019-03-13T15:08:26.381Z,76.90
2019-03-13T15:10:56.167Z,77.00
2019-03-13T15:13:26.910Z,77.10
2019-03-13T15:15:56.663Z,76.60
2019-03-13T15:18:26.369Z,76.30
2019-03-13T15:20:56.198Z,76.00
2019-03-13T15:23:26.106Z,76.00
2019-03-13T15:25:55.868Z,75.70
2019-03-13T15:28:25.586Z,75.60
2019-03-13T15:30:55.458Z,75.60
2019-03-13T15:33:25.165Z,75.70
2019-03-13T15:35:54.852Z,75.90
2019-03-13T15:38:24.564Z,76.00
2019-03-13T15:40:54.273Z,76.10
2019-03-13T15:43:24.029Z,76.20
2019-03-13T15:45:53.733Z,76.20
2019-03-13T15:48:23.410Z,76.30
2019-03-13T15:50:53.184Z,76.40
2019-03-13T15:53:22.919Z,77.00
2019-03-13T15:55:52.698Z,76.10
2019-03-13T15:58:22.445Z,76.00
2019-03-13T16:00:52.325Z,76.00
2019-03-13T16:03:22.127Z,76.10
2019-03-13T16:05:51.893Z,76.20
2019-03-13T16:08:21.577Z,76.20
2019-03-13T16:10:51.292Z,76.10
2019-03-13T16:13:20.984Z,76.00
2019-03-13T16:15:50.848Z,76.00
2019-03-13T16:18:20.527Z,76.00
2019-03-13T16:20:50.301Z,75.90
2019-03-13T16:23:19.994Z,76.50
2019-03-13T16:25:49.863Z,76.10
2019-03-13T16:28:19.557Z,76.10
2019-03-13T16:30:49.566Z,76.20
2019-03-13T16:33:19.254Z,76.20
2019-03-13T16:35:49.126Z,76.00
2019-03-13T16:38:18.958Z,76.10
2019-03-13T16:40:48.658Z,76.00
2019-03-13T16:43:18.768Z,76.10
2019-03-13T16:45:49.528Z,76.10
2019-03-13T16:48:19.365Z,76.00
2019-03-13T16:50:49.214Z,75.80
2019-03-13T16:53:18.889Z,75.70
2019-03-13T16:55:48.757Z,75.70
2019-03-13T16:58:18.437Z,75.70
2019-03-13T17:00:50.585Z,75.50
2019-03-13T17:03:20.025Z,75.10
2019-03-13T17:05:50.114Z,75.10
2019-03-13T17:08:19.914Z,75.10
2019-03-13T17:10:49.690Z,75.10
2019-03-13T17:13:19.393Z,75.10
2019-03-13T17:15:49.168Z,75.20
2019-03-13T17:18:18.932Z,74.90
2019-03-13T17:20:48.673Z,75.00
2019-03-13T17:23:18.513Z,74.80
2019-03-13T17:25:48.366Z,74.70
2019-03-13T17:28:18.453Z,74.50
2019-03-13T17:30:49.365Z,74.50
2019-03-13T17:33:19.140Z,74.50
2019-03-13T17:35:48.859Z,74.50
2019-03-13T17:38:18.548Z,74.20
2019-03-13T17:40:48.329Z,74.40
2019-03-13T17:43:18.112Z,74.40
2019-03-13T17:45:47.885Z,74.80
2019-03-13T17:48:19.868Z,74.30
2019-03-13T17:50:49.700Z,74.00
2019-03-13T17:53:19.416Z,74.00
2019-03-13T17:55:49.138Z,74.10
2019-03-13T17:58:18.852Z,74.10
2019-03-13T18:00:51.048Z,74.60
2019-03-13T18:03:21.705Z,73.80
2019-03-13T18:05:51.541Z,73.80
2019-03-13T18:08:21.404Z,73.50
2019-03-13T18:10:51.267Z,73.50
2019-03-13T18:13:22.810Z,73.00
2019-03-13T18:15:55.581Z,72.80
2019-03-13T18:18:25.301Z,72.70
2019-03-13T18:20:55.073Z,72.50
2019-03-13T18:23:24.772Z,73.00
2019-03-13T18:25:54.780Z,72.40
2019-03-13T18:28:24.636Z,71.50
2019-03-13T18:30:54.324Z,71.10
2019-03-13T18:33:24.198Z,70.60
2019-03-13T18:35:53.932Z,70.30
2019-03-13T18:38:23.728Z,70.20
2019-03-13T18:40:53.506Z,70.00
2019-03-13T18:43:23.374Z,70.00
2019-03-13T18:45:53.088Z,70.00
2019-03-13T18:48:22.782Z,70.00
2019-03-13T18:50:52.597Z,70.40
2019-03-13T18:53:22.380Z,70.80
2019-03-13T18:55:52.140Z,70.80
2019-03-13T18:58:21.934Z,71.00
2019-03-13T19:00:51.804Z,70.90
2019-03-13T19:03:21.515Z,70.60
2019-03-13T19:05:54.456Z,70.80
2019-03-13T19:08:22.879Z,70.60
2019-03-13T19:10:52.641Z,70.70
2019-03-13T19:13:23.324Z,70.70
2019-03-13T19:15:53.108Z,71.00
2019-03-13T19:18:23.006Z,70.80
2019-03-13T19:20:54.025Z,71.10
2019-03-13T19:23:23.980Z,71.50
2019-03-13T19:25:53.652Z,71.30
2019-03-13T19:28:23.520Z,71.70
2019-03-13T19:30:53.300Z,71.50
2019-03-13T19:33:24.086Z,71.50
2019-03-13T19:35:55.073Z,71.70
2019-03-13T19:38:26.259Z,71.90
2019-03-13T19:40:56.809Z,71.80
2019-03-13T19:43:26.580Z,71.10
2019-03-13T19:45:56.273Z,72.00
2019-03-13T19:48:26.108Z,71.70
2019-03-13T19:50:56.724Z,71.50
2019-03-13T19:53:26.702Z,71.70
2019-03-13T19:55:56.570Z,71.70
2019-03-13T19:58:26.437Z,71.80
2019-03-13T20:00:56.242Z,71.90
2019-03-13T20:03:26.016Z,71.70
2019-03-13T20:05:55.899Z,72.00
2019-03-13T20:08:25.983Z,72.40
2019-03-13T20:10:58.082Z,72.00
2019-03-13T20:13:28.376Z,72.20
2019-03-13T20:15:58.558Z,72.10
2019-03-13T20:18:28.726Z,71.90
2019-03-13T20:20:58.491Z,72.00
2019-03-13T20:23:28.244Z,72.90
2019-03-13T20:25:58.435Z,72.30
2019-03-13T20:28:28.459Z,72.30
2019-03-13T20:30:58.196Z,72.40
2019-03-13T20:33:28.155Z,72.60
2019-03-13T20:35:58.017Z,72.70
2019-03-13T20:38:27.820Z,72.80
2019-03-13T20:40:57.636Z,72.60
2019-03-13T20:43:27.371Z,72.40
2019-03-13T20:45:57.200Z,72.50
2019-03-13T20:48:26.880Z,72.60
2019-03-13T20:50:56.652Z,72.40
2019-03-13T20:53:26.322Z,72.20
2019-03-13T20:55:58.676Z,72.20
2019-03-13T20:58:29.532Z,72.20
2019-03-13T21:00:59.469Z,72.00
2019-03-13T21:03:29.392Z,72.20
2019-03-13T21:06:00.746Z,72.10
2019-03-13T21:08:31.097Z,72.10
2019-03-13T21:11:01.871Z,72.10
2019-03-13T21:13:31.705Z,71.80
2019-03-13T21:16:01.397Z,71.90
2019-03-13T21:18:31.351Z,71.70
2019-03-13T21:21:01.064Z,71.60
2019-03-13T21:23:31.829Z,71.50
2019-03-13T21:26:01.667Z,71.30
2019-03-13T21:28:31.528Z,71.50
2019-03-13T21:31:03.880Z,71.70
2019-03-13T21:33:35.879Z,71.10
2019-03-13T21:36:05.652Z,71.80
2019-03-13T21:38:35.496Z,71.80
2019-03-13T21:41:05.201Z,71.80
2019-03-13T21:43:36.025Z,71.80
2019-03-13T21:46:06.926Z,71.60
2019-03-13T21:48:36.836Z,71.70
2019-03-13T21:51:06.705Z,71.30
2019-03-13T21:53:36.400Z,71.40
2019-03-13T21:56:06.274Z,71.30
2019-03-13T21:58:35.972Z,71.40
2019-03-13T22:01:18.611Z,71.20
2019-03-13T22:03:37.276Z,71.00
2019-03-13T22:06:07.053Z,71.20
2019-03-13T22:08:36.846Z,71.20
2019-03-13T22:11:06.920Z,70.90
2019-03-13T22:13:36.618Z,70.80
2019-03-13T22:16:06.408Z,70.80
2019-03-13T22:18:39.933Z,70.60
2019-03-13T22:21:09.654Z,70.00
2019-03-13T22:23:39.412Z,70.40
2019-03-13T22:26:09.156Z,70.40
2019-03-13T22:28:38.851Z,70.30
2019-03-13T22:31:08.548Z,70.20
2019-03-13T22:33:38.254Z,70.40
2019-03-13T22:36:08.001Z,70.00
2019-03-13T22:38:37.700Z,70.00
2019-03-13T22:41:07.388Z,69.90
2019-03-13T22:43:37.092Z,70.10
2019-03-13T22:46:06.928Z,70.30
2019-03-13T22:48:36.741Z,70.30
2019-03-13T22:51:06.516Z,70.30
2019-03-13T22:53:36.212Z,70.40
2019-03-13T22:56:05.977Z,70.50
2019-03-13T22:58:35.836Z,70.40
2019-03-13T23:01:13.183Z,70.50
2019-03-13T23:03:43.492Z,70.80
2019-03-13T23:06:13.328Z,71.00
2019-03-13T23:08:43.102Z,71.10
2019-03-13T23:11:12.783Z,71.10
2019-03-13T23:13:42.503Z,71.10
2019-03-13T23:16:12.185Z,71.30
2019-03-13T23:18:41.949Z,71.50
2019-03-13T23:21:11.660Z,71.40
2019-03-13T23:23:41.427Z,71.60
2019-03-13T23:26:11.117Z,71.60
2019-03-13T23:28:40.821Z,71.90
2019-03-13T23:31:10.567Z,71.80
2019-03-13T23:33:40.358Z,71.90
2019-03-13T23:36:10.105Z,72.00
2019-03-13T23:38:39.991Z,72.10
2019-03-13T23:41:12.316Z,72.00
2019-03-13T23:43:42.009Z,72.00
2019-03-13T23:46:11.696Z,72.20
2019-03-13T23:48:41.407Z,72.30
2019-03-13T23:51:11.082Z,72.40
2019-03-13T23:53:40.857Z,72.60
2019-03-13T23:56:10.547Z,72.70
2019-03-13T23:58:40.243Z,72.90
